sensor_id;sensor_type;location;lat;lon;timestamp;P1;durP1;ratioP1;P2;durP2;ratioP2
31638;SDS011;18248;51.522;7.020;2023-12-29T00:00:04;13.10;;;1.80;;
31638;SDS011;18248;51.522;7.020;2023-12-29T00:03:03;10.68;;;1.63;;
31638;SDS011;18248;51.522;7.020;2023-12-29T00:06:02;12.35;;;2.00;;
31638;SDS011;18248;51.522;7.020;2023-12-29T00:09:01;12.32;;;2.15;;
31638;SDS011;18248;51.522;7.020;2023-12-29T00:12:00;9.20;;;1.92;;
31638;SDS011;18248;51.522;7.020;2023-12-29T00:14:58;9.13;;;1.75;;
31638;SDS011;18248;51.522;7.020;2023-12-29T00:17:57;15.50;;;2.42;;
31638;SDS011;18248;51.522;7.020;2023-12-29T00:20:55;20.08;;;2.80;;
31638;SDS011;18248;51.522;7.020;2023-12-29T00:23:54;10.80;;;2.45;;
31638;SDS011;18248;51.522;7.020;2023-12-29T00:26:53;17.85;;;3.13;;
31638;SDS011;18248;51.522;7.020;2023-12-29T00:29:52;11.60;;;3.50;;
31638;SDS011;18248;51.522;7.020;2023-12-29T00:32:50;19.42;;;3.17;;
31638;SDS011;18248;51.522;7.020;2023-12-29T00:35:49;17.30;;;2.85;;
31638;SDS011;18248;51.522;7.020;2023-12-29T00:38:47;11.23;;;2.42;;
31638;SDS011;18248;51.522;7.020;2023-12-29T00:41:46;12.82;;;1.88;;
31638;SDS011;18248;51.522;7.020;2023-12-29T00:44:44;9.40;;;1.95;;
31638;SDS011;18248;51.522;7.020;2023-12-29T00:47:43;8.27;;;1.77;;
31638;SDS011;18248;51.522;7.020;2023-12-29T00:50:42;15.68;;;2.00;;
31638;SDS011;18248;51.522;7.020;2023-12-29T00:53:41;9.80;;;1.67;;
31638;SDS011;18248;51.522;7.020;2023-12-29T00:56:39;13.60;;;1.60;;
31638;SDS011;18248;51.522;7.020;2023-12-29T00:59:38;12.95;;;2.10;;
31638;SDS011;18248;51.522;7.020;2023-12-29T01:02:38;12.25;;;1.85;;
31638;SDS011;18248;51.522;7.020;2023-12-29T01:05:37;11.25;;;1.55;;
31638;SDS011;18248;51.522;7.020;2023-12-29T01:08:36;12.85;;;2.47;;
31638;SDS011;18248;51.522;7.020;2023-12-29T01:11:34;15.55;;;1.80;;
31638;SDS011;18248;51.522;7.020;2023-12-29T01:14:33;8.88;;;2.10;;
31638;SDS011;18248;51.522;7.020;2023-12-29T01:17:31;10.63;;;1.63;;
31638;SDS011;18248;51.522;7.020;2023-12-29T01:20:30;15.82;;;1.63;;
31638;SDS011;18248;51.522;7.020;2023-12-29T01:23:28;10.00;;;3.05;;
31638;SDS011;18248;51.522;7.020;2023-12-29T01:26:27;11.48;;;2.28;;
31638;SDS011;18248;51.522;7.020;2023-12-29T01:29:25;8.10;;;1.52;;
31638;SDS011;18248;51.522;7.020;2023-12-29T01:32:24;11.40;;;1.60;;
31638;SDS011;18248;51.522;7.020;2023-12-29T01:35:22;8.70;;;1.65;;
31638;SDS011;18248;51.522;7.020;2023-12-29T01:38:21;9.00;;;2.20;;
31638;SDS011;18248;51.522;7.020;2023-12-29T01:41:20;7.05;;;1.98;;
31638;SDS011;18248;51.522;7.020;2023-12-29T01:44:20;14.80;;;2.00;;
31638;SDS011;18248;51.522;7.020;2023-12-29T01:47:19;13.25;;;2.13;;
31638;SDS011;18248;51.522;7.020;2023-12-29T01:50:18;9.73;;;2.00;;
31638;SDS011;18248;51.522;7.020;2023-12-29T01:53:19;8.05;;;1.70;;
31638;SDS011;18248;51.522;7.020;2023-12-29T01:56:18;13.63;;;2.00;;
31638;SDS011;18248;51.522;7.020;2023-12-29T01:59:17;11.32;;;1.75;;
31638;SDS011;18248;51.522;7.020;2023-12-29T02:02:17;11.70;;;2.08;;
31638;SDS011;18248;51.522;7.020;2023-12-29T02:05:16;15.60;;;2.50;;
31638;SDS011;18248;51.522;7.020;2023-12-29T02:08:18;16.20;;;2.08;;
31638;SDS011;18248;51.522;7.020;2023-12-29T02:11:17;10.45;;;2.08;;
31638;SDS011;18248;51.522;7.020;2023-12-29T02:14:16;7.18;;;2.17;;
31638;SDS011;18248;51.522;7.020;2023-12-29T02:17:17;23.17;;;3.22;;
31638;SDS011;18248;51.522;7.020;2023-12-29T02:20:21;16.73;;;2.35;;
31638;SDS011;18248;51.522;7.020;2023-12-29T02:23:20;18.08;;;2.65;;
31638;SDS011;18248;51.522;7.020;2023-12-29T02:26:19;20.45;;;2.53;;
31638;SDS011;18248;51.522;7.020;2023-12-29T02:29:20;19.70;;;2.55;;
31638;SDS011;18248;51.522;7.020;2023-12-29T02:32:21;13.80;;;2.10;;
31638;SDS011;18248;51.522;7.020;2023-12-29T02:35:24;15.40;;;2.35;;
31638;SDS011;18248;51.522;7.020;2023-12-29T02:38:25;12.07;;;2.00;;
31638;SDS011;18248;51.522;7.020;2023-12-29T02:41:27;20.05;;;3.00;;
31638;SDS011;18248;51.522;7.020;2023-12-29T02:44:25;14.25;;;2.08;;
31638;SDS011;18248;51.522;7.020;2023-12-29T02:47:24;11.13;;;2.30;;
31638;SDS011;18248;51.522;7.020;2023-12-29T02:50:23;18.70;;;2.92;;
31638;SDS011;18248;51.522;7.020;2023-12-29T02:53:22;14.05;;;3.22;;
31638;SDS011;18248;51.522;7.020;2023-12-29T02:56:20;13.18;;;2.65;;
31638;SDS011;18248;51.522;7.020;2023-12-29T02:59:20;15.13;;;2.28;;
31638;SDS011;18248;51.522;7.020;2023-12-29T03:02:18;19.63;;;2.78;;
31638;SDS011;18248;51.522;7.020;2023-12-29T03:05:17;13.55;;;2.35;;
31638;SDS011;18248;51.522;7.020;2023-12-29T03:08:15;16.70;;;2.20;;
31638;SDS011;18248;51.522;7.020;2023-12-29T03:11:14;20.45;;;2.47;;
31638;SDS011;18248;51.522;7.020;2023-12-29T03:14:14;17.98;;;3.03;;
31638;SDS011;18248;51.522;7.020;2023-12-29T03:17:13;22.60;;;3.58;;
31638;SDS011;18248;51.522;7.020;2023-12-29T03:20:12;15.48;;;3.05;;
31638;SDS011;18248;51.522;7.020;2023-12-29T03:23:11;15.23;;;2.38;;
31638;SDS011;18248;51.522;7.020;2023-12-29T03:26:10;14.43;;;2.67;;
31638;SDS011;18248;51.522;7.020;2023-12-29T03:29:08;11.63;;;2.38;;
31638;SDS011;18248;51.522;7.020;2023-12-29T03:32:08;12.73;;;2.47;;
31638;SDS011;18248;51.522;7.020;2023-12-29T03:35:06;13.00;;;2.20;;
31638;SDS011;18248;51.522;7.020;2023-12-29T03:38:05;15.10;;;2.65;;
31638;SDS011;18248;51.522;7.020;2023-12-29T03:41:04;13.30;;;2.70;;
31638;SDS011;18248;51.522;7.020;2023-12-29T03:44:02;16.00;;;2.97;;
31638;SDS011;18248;51.522;7.020;2023-12-29T03:47:01;13.13;;;2.55;;
31638;SDS011;18248;51.522;7.020;2023-12-29T03:50:00;11.98;;;2.08;;
31638;SDS011;18248;51.522;7.020;2023-12-29T03:52:59;14.10;;;2.65;;
31638;SDS011;18248;51.522;7.020;2023-12-29T03:55:57;16.90;;;2.72;;
31638;SDS011;18248;51.522;7.020;2023-12-29T03:58:56;12.05;;;2.25;;
31638;SDS011;18248;51.522;7.020;2023-12-29T04:01:55;16.60;;;2.60;;
31638;SDS011;18248;51.522;7.020;2023-12-29T04:04:54;15.25;;;2.33;;
31638;SDS011;18248;51.522;7.020;2023-12-29T04:07:52;11.88;;;2.10;;
31638;SDS011;18248;51.522;7.020;2023-12-29T04:10:51;14.95;;;2.25;;
31638;SDS011;18248;51.522;7.020;2023-12-29T04:13:49;19.60;;;3.35;;
31638;SDS011;18248;51.522;7.020;2023-12-29T04:16:48;20.15;;;3.42;;
31638;SDS011;18248;51.522;7.020;2023-12-29T04:19:46;15.52;;;3.53;;
31638;SDS011;18248;51.522;7.020;2023-12-29T04:22:46;15.18;;;2.22;;
31638;SDS011;18248;51.522;7.020;2023-12-29T04:25:45;19.85;;;2.50;;
31638;SDS011;18248;51.522;7.020;2023-12-29T04:28:44;16.35;;;2.30;;
31638;SDS011;18248;51.522;7.020;2023-12-29T04:31:42;9.65;;;2.45;;
31638;SDS011;18248;51.522;7.020;2023-12-29T04:34:41;15.20;;;2.50;;
31638;SDS011;18248;51.522;7.020;2023-12-29T04:37:39;17.02;;;2.50;;
31638;SDS011;18248;51.522;7.020;2023-12-29T04:40:38;14.48;;;2.70;;
31638;SDS011;18248;51.522;7.020;2023-12-29T04:43:36;15.13;;;2.28;;
31638;SDS011;18248;51.522;7.020;2023-12-29T04:46:35;15.13;;;2.80;;
31638;SDS011;18248;51.522;7.020;2023-12-29T04:49:33;11.10;;;2.40;;
31638;SDS011;18248;51.522;7.020;2023-12-29T04:52:32;12.25;;;2.17;;
31638;SDS011;18248;51.522;7.020;2023-12-29T04:55:30;13.85;;;2.67;;
31638;SDS011;18248;51.522;7.020;2023-12-29T04:58:29;18.80;;;2.40;;
31638;SDS011;18248;51.522;7.020;2023-12-29T05:01:28;19.45;;;2.50;;
31638;SDS011;18248;51.522;7.020;2023-12-29T05:04:26;9.93;;;2.15;;
31638;SDS011;18248;51.522;7.020;2023-12-29T05:07:26;14.77;;;2.30;;
31638;SDS011;18248;51.522;7.020;2023-12-29T05:10:25;12.80;;;2.55;;
31638;SDS011;18248;51.522;7.020;2023-12-29T05:13:23;17.10;;;2.65;;
31638;SDS011;18248;51.522;7.020;2023-12-29T05:16:22;15.20;;;2.22;;
31638;SDS011;18248;51.522;7.020;2023-12-29T05:19:20;11.57;;;2.15;;
31638;SDS011;18248;51.522;7.020;2023-12-29T05:22:19;13.95;;;2.20;;
31638;SDS011;18248;51.522;7.020;2023-12-29T05:25:17;9.80;;;2.20;;
31638;SDS011;18248;51.522;7.020;2023-12-29T05:28:17;18.67;;;3.33;;
31638;SDS011;18248;51.522;7.020;2023-12-29T05:31:15;12.48;;;2.45;;
31638;SDS011;18248;51.522;7.020;2023-12-29T05:34:14;14.88;;;2.50;;
31638;SDS011;18248;51.522;7.020;2023-12-29T05:37:12;15.70;;;2.22;;
31638;SDS011;18248;51.522;7.020;2023-12-29T05:40:11;19.67;;;2.35;;
31638;SDS011;18248;51.522;7.020;2023-12-29T05:43:09;11.00;;;1.95;;
31638;SDS011;18248;51.522;7.020;2023-12-29T05:46:08;11.10;;;2.15;;
31638;SDS011;18248;51.522;7.020;2023-12-29T05:49:09;13.35;;;2.25;;
31638;SDS011;18248;51.522;7.020;2023-12-29T05:52:07;17.38;;;2.83;;
31638;SDS011;18248;51.522;7.020;2023-12-29T05:55:06;14.10;;;3.03;;
31638;SDS011;18248;51.522;7.020;2023-12-29T05:58:05;13.95;;;2.08;;
31638;SDS011;18248;51.522;7.020;2023-12-29T06:01:04;13.15;;;2.60;;
31638;SDS011;18248;51.522;7.020;2023-12-29T06:04:02;17.08;;;2.40;;
31638;SDS011;18248;51.522;7.020;2023-12-29T06:07:01;15.68;;;2.67;;
31638;SDS011;18248;51.522;7.020;2023-12-29T06:10:00;23.85;;;3.42;;
31638;SDS011;18248;51.522;7.020;2023-12-29T06:12:59;15.93;;;2.20;;
31638;SDS011;18248;51.522;7.020;2023-12-29T06:15:59;18.20;;;3.05;;
31638;SDS011;18248;51.522;7.020;2023-12-29T06:18:58;16.48;;;2.30;;
31638;SDS011;18248;51.522;7.020;2023-12-29T06:21:56;20.10;;;2.58;;
31638;SDS011;18248;51.522;7.020;2023-12-29T06:24:55;12.60;;;2.65;;
31638;SDS011;18248;51.522;7.020;2023-12-29T06:27:53;14.27;;;2.17;;
31638;SDS011;18248;51.522;7.020;2023-12-29T06:30:53;10.65;;;2.33;;
31638;SDS011;18248;51.522;7.020;2023-12-29T06:33:51;14.27;;;3.00;;
31638;SDS011;18248;51.522;7.020;2023-12-29T06:36:50;15.48;;;2.70;;
31638;SDS011;18248;51.522;7.020;2023-12-29T06:39:49;13.25;;;2.40;;
31638;SDS011;18248;51.522;7.020;2023-12-29T06:42:47;18.40;;;2.95;;
31638;SDS011;18248;51.522;7.020;2023-12-29T06:45:46;12.90;;;2.33;;
31638;SDS011;18248;51.522;7.020;2023-12-29T06:48:45;24.30;;;2.72;;
31638;SDS011;18248;51.522;7.020;2023-12-29T06:51:45;9.68;;;1.73;;
31638;SDS011;18248;51.522;7.020;2023-12-29T06:54:44;12.50;;;2.20;;
31638;SDS011;18248;51.522;7.020;2023-12-29T06:57:43;16.50;;;2.40;;
31638;SDS011;18248;51.522;7.020;2023-12-29T07:00:41;11.20;;;2.28;;
31638;SDS011;18248;51.522;7.020;2023-12-29T07:03:40;16.63;;;2.65;;
31638;SDS011;18248;51.522;7.020;2023-12-29T07:06:39;8.80;;;1.60;;
31638;SDS011;18248;51.522;7.020;2023-12-29T07:09:38;16.60;;;2.65;;
31638;SDS011;18248;51.522;7.020;2023-12-29T07:12:38;13.30;;;2.08;;
31638;SDS011;18248;51.522;7.020;2023-12-29T07:15:36;14.30;;;2.20;;
31638;SDS011;18248;51.522;7.020;2023-12-29T07:18:35;17.13;;;2.33;;
31638;SDS011;18248;51.522;7.020;2023-12-29T07:21:34;15.73;;;2.83;;
31638;SDS011;18248;51.522;7.020;2023-12-29T07:24:32;13.45;;;2.42;;
31638;SDS011;18248;51.522;7.020;2023-12-29T07:27:33;14.85;;;2.72;;
31638;SDS011;18248;51.522;7.020;2023-12-29T07:30:31;15.10;;;2.38;;
31638;SDS011;18248;51.522;7.020;2023-12-29T07:33:30;16.02;;;2.03;;
31638;SDS011;18248;51.522;7.020;2023-12-29T07:36:29;13.13;;;1.88;;
31638;SDS011;18248;51.522;7.020;2023-12-29T07:39:27;18.95;;;2.15;;
31638;SDS011;18248;51.522;7.020;2023-12-29T07:42:26;16.42;;;2.58;;
31638;SDS011;18248;51.522;7.020;2023-12-29T07:45:25;14.95;;;1.90;;
31638;SDS011;18248;51.522;7.020;2023-12-29T07:48:23;14.52;;;2.50;;
31638;SDS011;18248;51.522;7.020;2023-12-29T07:51:22;12.70;;;2.10;;
31638;SDS011;18248;51.522;7.020;2023-12-29T07:54:20;11.95;;;2.08;;
31638;SDS011;18248;51.522;7.020;2023-12-29T07:57:19;15.80;;;2.17;;
31638;SDS011;18248;51.522;7.020;2023-12-29T08:00:17;10.60;;;1.85;;
31638;SDS011;18248;51.522;7.020;2023-12-29T08:03:16;8.10;;;1.70;;
31638;SDS011;18248;51.522;7.020;2023-12-29T08:06:15;18.13;;;2.45;;
31638;SDS011;18248;51.522;7.020;2023-12-29T08:09:13;12.77;;;1.83;;
31638;SDS011;18248;51.522;7.020;2023-12-29T08:12:12;11.25;;;1.88;;
31638;SDS011;18248;51.522;7.020;2023-12-29T08:15:11;17.10;;;2.42;;
31638;SDS011;18248;51.522;7.020;2023-12-29T08:18:10;14.57;;;1.80;;
31638;SDS011;18248;51.522;7.020;2023-12-29T08:21:08;12.75;;;2.67;;
31638;SDS011;18248;51.522;7.020;2023-12-29T08:24:14;12.15;;;2.42;;
31638;SDS011;18248;51.522;7.020;2023-12-29T08:27:14;8.98;;;2.03;;
31638;SDS011;18248;51.522;7.020;2023-12-29T08:30:13;9.38;;;1.83;;
31638;SDS011;18248;51.522;7.020;2023-12-29T08:33:12;14.32;;;2.45;;
31638;SDS011;18248;51.522;7.020;2023-12-29T08:36:11;12.50;;;1.80;;
31638;SDS011;18248;51.522;7.020;2023-12-29T08:39:10;12.77;;;2.10;;
31638;SDS011;18248;51.522;7.020;2023-12-29T08:42:10;20.17;;;2.53;;
31638;SDS011;18248;51.522;7.020;2023-12-29T08:45:08;11.43;;;2.10;;
31638;SDS011;18248;51.522;7.020;2023-12-29T08:48:07;17.23;;;2.75;;
31638;SDS011;18248;51.522;7.020;2023-12-29T08:51:05;15.73;;;2.03;;
31638;SDS011;18248;51.522;7.020;2023-12-29T08:54:04;9.45;;;1.75;;
31638;SDS011;18248;51.522;7.020;2023-12-29T08:57:03;10.70;;;1.65;;
31638;SDS011;18248;51.522;7.020;2023-12-29T09:00:02;10.93;;;2.10;;
31638;SDS011;18248;51.522;7.020;2023-12-29T09:03:01;10.40;;;1.25;;
31638;SDS011;18248;51.522;7.020;2023-12-29T09:06:00;9.25;;;1.50;;
31638;SDS011;18248;51.522;7.020;2023-12-29T09:09:01;7.40;;;1.48;;
31638;SDS011;18248;51.522;7.020;2023-12-29T09:11:59;9.50;;;1.30;;
31638;SDS011;18248;51.522;7.020;2023-12-29T09:14:58;9.30;;;1.90;;
31638;SDS011;18248;51.522;7.020;2023-12-29T09:17:56;7.88;;;1.30;;
31638;SDS011;18248;51.522;7.020;2023-12-29T09:20:55;6.60;;;1.23;;
31638;SDS011;18248;51.522;7.020;2023-12-29T09:23:53;6.72;;;1.00;;
31638;SDS011;18248;51.522;7.020;2023-12-29T09:26:52;7.72;;;1.20;;
31638;SDS011;18248;51.522;7.020;2023-12-29T09:29:50;8.30;;;1.38;;
31638;SDS011;18248;51.522;7.020;2023-12-29T09:32:49;5.38;;;1.00;;
31638;SDS011;18248;51.522;7.020;2023-12-29T09:35:47;4.30;;;0.98;;
31638;SDS011;18248;51.522;7.020;2023-12-29T09:38:46;8.93;;;1.10;;
31638;SDS011;18248;51.522;7.020;2023-12-29T09:41:45;3.55;;;0.82;;
31638;SDS011;18248;51.522;7.020;2023-12-29T09:44:45;3.25;;;1.10;;
31638;SDS011;18248;51.522;7.020;2023-12-29T09:47:48;4.55;;;0.63;;
31638;SDS011;18248;51.522;7.020;2023-12-29T09:50:51;4.35;;;0.93;;
31638;SDS011;18248;51.522;7.020;2023-12-29T09:53:50;3.47;;;0.80;;
31638;SDS011;18248;51.522;7.020;2023-12-29T09:56:50;2.70;;;0.93;;
31638;SDS011;18248;51.522;7.020;2023-12-29T09:59:49;8.35;;;1.27;;
31638;SDS011;18248;51.522;7.020;2023-12-29T10:02:51;2.92;;;0.70;;
31638;SDS011;18248;51.522;7.020;2023-12-29T10:05:54;2.95;;;0.60;;
31638;SDS011;18248;51.522;7.020;2023-12-29T10:08:57;1.85;;;0.57;;
31638;SDS011;18248;51.522;7.020;2023-12-29T10:11:56;1.83;;;0.80;;
31638;SDS011;18248;51.522;7.020;2023-12-29T10:18:26;2.60;;;0.70;;
31638;SDS011;18248;51.522;7.020;2023-12-29T10:21:31;1.55;;;0.47;;
31638;SDS011;18248;51.522;7.020;2023-12-29T10:24:37;2.13;;;0.90;;
31638;SDS011;18248;51.522;7.020;2023-12-29T10:27:36;1.58;;;0.73;;
31638;SDS011;18248;51.522;7.020;2023-12-29T10:30:35;4.15;;;0.80;;
31638;SDS011;18248;51.522;7.020;2023-12-29T10:33:34;2.95;;;1.15;;
31638;SDS011;18248;51.522;7.020;2023-12-29T10:36:44;5.07;;;0.80;;
31638;SDS011;18248;51.522;7.020;2023-12-29T10:39:55;2.20;;;0.60;;
31638;SDS011;18248;51.522;7.020;2023-12-29T10:42:54;1.38;;;0.50;;
31638;SDS011;18248;51.522;7.020;2023-12-29T10:46:09;2.10;;;0.70;;
31638;SDS011;18248;51.522;7.020;2023-12-29T10:49:11;4.47;;;0.80;;
31638;SDS011;18248;51.522;7.020;2023-12-29T10:52:11;1.15;;;0.77;;
31638;SDS011;18248;51.522;7.020;2023-12-29T10:55:12;2.55;;;0.80;;
31638;SDS011;18248;51.522;7.020;2023-12-29T10:58:10;3.60;;;1.17;;
31638;SDS011;18248;51.522;7.020;2023-12-29T11:01:13;3.95;;;1.25;;
31638;SDS011;18248;51.522;7.020;2023-12-29T11:04:13;10.43;;;1.10;;
31638;SDS011;18248;51.522;7.020;2023-12-29T11:07:12;6.60;;;1.13;;
31638;SDS011;18248;51.522;7.020;2023-12-29T11:10:11;4.35;;;1.45;;
31638;SDS011;18248;51.522;7.020;2023-12-29T11:13:11;6.13;;;1.30;;
31638;SDS011;18248;51.522;7.020;2023-12-29T11:16:12;6.00;;;1.45;;
31638;SDS011;18248;51.522;7.020;2023-12-29T11:19:11;6.43;;;1.33;;
31638;SDS011;18248;51.522;7.020;2023-12-29T11:22:11;6.18;;;1.42;;
31638;SDS011;18248;51.522;7.020;2023-12-29T11:25:10;6.05;;;1.20;;
31638;SDS011;18248;51.522;7.020;2023-12-29T11:28:10;5.20;;;1.20;;
31638;SDS011;18248;51.522;7.020;2023-12-29T11:31:12;3.38;;;1.02;;
31638;SDS011;18248;51.522;7.020;2023-12-29T11:34:12;6.78;;;0.93;;
31638;SDS011;18248;51.522;7.020;2023-12-29T11:40:36;3.30;;;1.13;;
31638;SDS011;18248;51.522;7.020;2023-12-29T11:43:42;8.90;;;1.35;;
31638;SDS011;18248;51.522;7.020;2023-12-29T11:46:42;4.93;;;1.15;;
31638;SDS011;18248;51.522;7.020;2023-12-29T11:49:57;6.18;;;1.20;;
31638;SDS011;18248;51.522;7.020;2023-12-29T11:53:00;8.45;;;1.58;;
31638;SDS011;18248;51.522;7.020;2023-12-29T11:55:58;7.50;;;1.45;;
31638;SDS011;18248;51.522;7.020;2023-12-29T11:59:11;4.28;;;1.17;;
31638;SDS011;18248;51.522;7.020;2023-12-29T12:02:29;7.70;;;1.50;;
31638;SDS011;18248;51.522;7.020;2023-12-29T12:06:01;6.85;;;1.30;;
31638;SDS011;18248;51.522;7.020;2023-12-29T12:12:38;10.10;;;1.92;;
31638;SDS011;18248;51.522;7.020;2023-12-29T12:15:40;6.60;;;1.48;;
31638;SDS011;18248;51.522;7.020;2023-12-29T12:18:39;7.43;;;1.10;;
31638;SDS011;18248;51.522;7.020;2023-12-29T12:21:38;7.38;;;1.55;;
31638;SDS011;18248;51.522;7.020;2023-12-29T12:24:37;9.63;;;1.80;;
31638;SDS011;18248;51.522;7.020;2023-12-29T12:27:37;12.43;;;2.10;;
31638;SDS011;18248;51.522;7.020;2023-12-29T12:30:36;7.15;;;1.48;;
31638;SDS011;18248;51.522;7.020;2023-12-29T12:33:35;6.85;;;1.60;;
31638;SDS011;18248;51.522;7.020;2023-12-29T12:36:33;6.03;;;1.30;;
31638;SDS011;18248;51.522;7.020;2023-12-29T12:39:47;5.78;;;1.50;;
31638;SDS011;18248;51.522;7.020;2023-12-29T12:42:46;3.90;;;1.17;;
31638;SDS011;18248;51.522;7.020;2023-12-29T12:45:59;7.78;;;1.92;;
31638;SDS011;18248;51.522;7.020;2023-12-29T12:49:00;3.13;;;1.15;;
31638;SDS011;18248;51.522;7.020;2023-12-29T12:52:00;7.10;;;1.65;;
31638;SDS011;18248;51.522;7.020;2023-12-29T12:55:00;6.22;;;1.20;;
31638;SDS011;18248;51.522;7.020;2023-12-29T12:57:59;5.82;;;1.30;;
31638;SDS011;18248;51.522;7.020;2023-12-29T13:00:58;9.85;;;1.77;;
31638;SDS011;18248;51.522;7.020;2023-12-29T13:03:57;4.57;;;1.38;;
31638;SDS011;18248;51.522;7.020;2023-12-29T13:06:56;6.65;;;1.33;;
31638;SDS011;18248;51.522;7.020;2023-12-29T13:09:55;10.70;;;1.73;;
31638;SDS011;18248;51.522;7.020;2023-12-29T13:12:54;6.25;;;1.42;;
31638;SDS011;18248;51.522;7.020;2023-12-29T13:15:52;6.07;;;1.52;;
31638;SDS011;18248;51.522;7.020;2023-12-29T13:18:51;6.28;;;1.83;;
31638;SDS011;18248;51.522;7.020;2023-12-29T13:21:51;8.73;;;2.20;;
31638;SDS011;18248;51.522;7.020;2023-12-29T13:24:54;3.88;;;2.05;;
31638;SDS011;18248;51.522;7.020;2023-12-29T13:27:53;8.15;;;2.58;;
31638;SDS011;18248;51.522;7.020;2023-12-29T13:30:52;7.32;;;2.63;;
31638;SDS011;18248;51.522;7.020;2023-12-29T13:34:01;8.82;;;2.10;;
31638;SDS011;18248;51.522;7.020;2023-12-29T13:40:26;7.22;;;2.10;;
31638;SDS011;18248;51.522;7.020;2023-12-29T13:43:32;6.13;;;1.95;;
31638;SDS011;18248;51.522;7.020;2023-12-29T13:46:33;11.10;;;2.53;;
31638;SDS011;18248;51.522;7.020;2023-12-29T13:49:33;12.98;;;2.75;;
31638;SDS011;18248;51.522;7.020;2023-12-29T13:52:35;6.88;;;2.38;;
31638;SDS011;18248;51.522;7.020;2023-12-29T13:55:35;7.20;;;2.60;;
31638;SDS011;18248;51.522;7.020;2023-12-29T13:58:34;6.93;;;2.38;;
31638;SDS011;18248;51.522;7.020;2023-12-29T14:01:36;6.63;;;2.15;;
31638;SDS011;18248;51.522;7.020;2023-12-29T14:04:35;8.65;;;2.45;;
31638;SDS011;18248;51.522;7.020;2023-12-29T14:07:34;11.60;;;2.53;;
31638;SDS011;18248;51.522;7.020;2023-12-29T14:10:33;8.77;;;2.13;;
31638;SDS011;18248;51.522;7.020;2023-12-29T14:13:32;6.82;;;1.67;;
31638;SDS011;18248;51.522;7.020;2023-12-29T14:16:31;5.63;;;1.80;;
31638;SDS011;18248;51.522;7.020;2023-12-29T14:19:37;6.95;;;2.50;;
31638;SDS011;18248;51.522;7.020;2023-12-29T14:22:36;9.80;;;2.38;;
31638;SDS011;18248;51.522;7.020;2023-12-29T14:25:35;8.43;;;2.08;;
31638;SDS011;18248;51.522;7.020;2023-12-29T14:28:35;8.02;;;1.77;;
31638;SDS011;18248;51.522;7.020;2023-12-29T14:31:34;15.43;;;2.03;;
31638;SDS011;18248;51.522;7.020;2023-12-29T14:34:34;6.45;;;1.70;;
31638;SDS011;18248;51.522;7.020;2023-12-29T14:37:33;6.22;;;1.90;;
31638;SDS011;18248;51.522;7.020;2023-12-29T14:40:31;8.85;;;1.77;;
31638;SDS011;18248;51.522;7.020;2023-12-29T14:43:32;9.15;;;2.22;;
31638;SDS011;18248;51.522;7.020;2023-12-29T14:46:31;5.90;;;1.80;;
31638;SDS011;18248;51.522;7.020;2023-12-29T14:49:32;4.75;;;1.40;;
31638;SDS011;18248;51.522;7.020;2023-12-29T14:52:31;9.07;;;1.95;;
31638;SDS011;18248;51.522;7.020;2023-12-29T14:55:29;10.00;;;2.15;;
31638;SDS011;18248;51.522;7.020;2023-12-29T14:58:28;6.85;;;1.70;;
31638;SDS011;18248;51.522;7.020;2023-12-29T15:01:26;10.98;;;2.28;;
31638;SDS011;18248;51.522;7.020;2023-12-29T15:04:25;5.20;;;1.23;;
31638;SDS011;18248;51.522;7.020;2023-12-29T15:07:24;6.90;;;2.08;;
31638;SDS011;18248;51.522;7.020;2023-12-29T15:10:27;4.40;;;1.77;;
31638;SDS011;18248;51.522;7.020;2023-12-29T15:13:25;6.75;;;1.38;;
31638;SDS011;18248;51.522;7.020;2023-12-29T15:16:25;3.78;;;1.20;;
31638;SDS011;18248;51.522;7.020;2023-12-29T15:19:23;3.42;;;0.93;;
31638;SDS011;18248;51.522;7.020;2023-12-29T15:22:22;3.28;;;1.00;;
31638;SDS011;18248;51.522;7.020;2023-12-29T15:25:24;6.70;;;1.52;;
31638;SDS011;18248;51.522;7.020;2023-12-29T15:28:23;4.53;;;1.05;;
31638;SDS011;18248;51.522;7.020;2023-12-29T15:31:22;3.28;;;1.02;;
31638;SDS011;18248;51.522;7.020;2023-12-29T15:34:22;4.38;;;1.23;;
31638;SDS011;18248;51.522;7.020;2023-12-29T15:37:20;4.25;;;1.45;;
31638;SDS011;18248;51.522;7.020;2023-12-29T15:40:19;3.15;;;1.08;;
31638;SDS011;18248;51.522;7.020;2023-12-29T15:43:17;4.65;;;1.00;;
31638;SDS011;18248;51.522;7.020;2023-12-29T15:46:16;3.60;;;0.88;;
31638;SDS011;18248;51.522;7.020;2023-12-29T15:49:15;4.80;;;1.05;;
31638;SDS011;18248;51.522;7.020;2023-12-29T15:52:14;3.38;;;1.05;;
31638;SDS011;18248;51.522;7.020;2023-12-29T15:55:12;3.47;;;1.20;;
31638;SDS011;18248;51.522;7.020;2023-12-29T15:58:11;3.70;;;0.95;;
31638;SDS011;18248;51.522;7.020;2023-12-29T16:01:10;2.15;;;0.98;;
31638;SDS011;18248;51.522;7.020;2023-12-29T16:04:08;3.25;;;1.23;;
31638;SDS011;18248;51.522;7.020;2023-12-29T16:07:07;4.82;;;1.30;;
31638;SDS011;18248;51.522;7.020;2023-12-29T16:10:05;4.45;;;1.45;;
31638;SDS011;18248;51.522;7.020;2023-12-29T16:13:05;4.97;;;1.70;;
31638;SDS011;18248;51.522;7.020;2023-12-29T16:16:04;4.97;;;1.70;;
31638;SDS011;18248;51.522;7.020;2023-12-29T16:19:03;5.63;;;1.60;;
31638;SDS011;18248;51.522;7.020;2023-12-29T16:22:01;4.45;;;1.60;;
31638;SDS011;18248;51.522;7.020;2023-12-29T16:25:00;6.22;;;1.95;;
31638;SDS011;18248;51.522;7.020;2023-12-29T16:27:58;5.55;;;2.05;;
31638;SDS011;18248;51.522;7.020;2023-12-29T16:30:57;7.53;;;2.47;;
31638;SDS011;18248;51.522;7.020;2023-12-29T16:33:55;6.95;;;2.28;;
31638;SDS011;18248;51.522;7.020;2023-12-29T16:36:58;5.68;;;2.20;;
31638;SDS011;18248;51.522;7.020;2023-12-29T16:39:58;7.75;;;2.70;;
31638;SDS011;18248;51.522;7.020;2023-12-29T16:42:56;7.72;;;2.83;;
31638;SDS011;18248;51.522;7.020;2023-12-29T16:45:55;7.43;;;2.30;;
31638;SDS011;18248;51.522;7.020;2023-12-29T16:48:53;4.82;;;2.58;;
31638;SDS011;18248;51.522;7.020;2023-12-29T16:51:52;6.90;;;2.40;;
31638;SDS011;18248;51.522;7.020;2023-12-29T16:54:50;6.00;;;2.30;;
31638;SDS011;18248;51.522;7.020;2023-12-29T16:57:49;6.47;;;2.95;;
31638;SDS011;18248;51.522;7.020;2023-12-29T17:00:48;7.80;;;3.25;;
31638;SDS011;18248;51.522;7.020;2023-12-29T17:03:47;6.78;;;3.03;;
31638;SDS011;18248;51.522;7.020;2023-12-29T17:06:46;7.32;;;3.20;;
31638;SDS011;18248;51.522;7.020;2023-12-29T17:09:44;9.80;;;3.40;;
31638;SDS011;18248;51.522;7.020;2023-12-29T17:12:43;8.95;;;3.90;;
31638;SDS011;18248;51.522;7.020;2023-12-29T17:15:41;6.50;;;3.13;;
31638;SDS011;18248;51.522;7.020;2023-12-29T17:18:40;6.15;;;2.90;;
31638;SDS011;18248;51.522;7.020;2023-12-29T17:21:38;4.43;;;2.60;;
31638;SDS011;18248;51.522;7.020;2023-12-29T17:24:37;6.57;;;2.22;;
31638;SDS011;18248;51.522;7.020;2023-12-29T17:27:36;5.85;;;3.72;;
31638;SDS011;18248;51.522;7.020;2023-12-29T17:30:35;7.28;;;2.35;;
31638;SDS011;18248;51.522;7.020;2023-12-29T17:33:34;7.78;;;3.17;;
31638;SDS011;18248;51.522;7.020;2023-12-29T17:36:32;7.25;;;3.40;;
31638;SDS011;18248;51.522;7.020;2023-12-29T17:39:31;8.20;;;2.85;;
31638;SDS011;18248;51.522;7.020;2023-12-29T17:42:30;6.38;;;2.75;;
31638;SDS011;18248;51.522;7.020;2023-12-29T17:45:28;6.97;;;2.75;;
31638;SDS011;18248;51.522;7.020;2023-12-29T17:48:27;5.20;;;2.28;;
31638;SDS011;18248;51.522;7.020;2023-12-29T17:51:25;5.68;;;1.75;;
31638;SDS011;18248;51.522;7.020;2023-12-29T17:54:27;8.55;;;2.05;;
31638;SDS011;18248;51.522;7.020;2023-12-29T17:57:25;6.03;;;1.88;;
31638;SDS011;18248;51.522;7.020;2023-12-29T18:00:24;6.57;;;2.00;;
31638;SDS011;18248;51.522;7.020;2023-12-29T18:03:22;5.93;;;1.90;;
31638;SDS011;18248;51.522;7.020;2023-12-29T18:06:21;7.07;;;2.20;;